Time;durP1;ratioP1;P1;durP2;ratioP2;P2;SDS_P1;SDS_P2;PMS_P1;PMS_P2;Temp;Humidity;BMP_temperature;BMP_pressure;BME280_temperature;BME280_humidity;BME280_pressure;Samples;Min_cycle;Max_cycle;Signal;HPM_P1;HPM_P2
2023/01/23 00:02:08;;;;;;;28.30;10.43;;;;;;;;;;4988183;28;20071;-64
2023/01/23 00:04:33;;;;;;;33.08;11.05;;;;;;;;;;4989011;28;20006;-64
2023/01/23 00:06:58;;;;;;;38.30;10.90;;;;;;;;;;4989744;28;20034;-65
2023/01/23 00:09:23;;;;;;;30.33;10.40;;;;;;;;;;4989736;28;20549;-65
2023/01/23 00:11:49;;;;;;;37.08;11.10;;;;;;;;;;4988591;28;20022;-64
2023/01/23 00:14:14;;;;;;;36.78;10.77;;;;;;;;;;4989364;28;20023;-64
2023/01/23 00:16:39;;;;;;;41.90;11.80;;;;;;;;;;4989428;28;20057;-65
2023/01/23 00:19:04;;;;;;;30.03;10.70;;;;;;;;;;4987276;28;20136;-63
2023/01/23 00:21:30;;;;;;;27.17;10.15;;;;;;;;;;4989929;28;20046;-66
2023/01/23 00:23:56;;;;;;;33.15;10.93;;;;;;;;;;4989050;28;20037;-65
2023/01/23 00:26:22;;;;;;;36.67;11.65;;;;;;;;;;4989180;28;20037;-63
2023/01/23 00:28:48;;;;;;;26.45;10.10;;;;;;;;;;4990881;28;20034;-64
2023/01/23 00:31:18;;;;;;;28.75;9.90;;;;;;;;;;4989268;28;20353;-63
2023/01/23 00:33:44;;;;;;;31.00;10.30;;;;;;;;;;4984532;28;20105;-64
2023/01/23 00:36:09;;;;;;;26.13;9.35;;;;;;;;;;4985638;28;20046;-64
2023/01/23 00:38:35;;;;;;;21.63;8.48;;;;;;;;;;4991372;28;20034;-63
2023/01/23 00:41:01;;;;;;;22.33;8.73;;;;;;;;;;4990285;28;20419;-64
2023/01/23 00:43:26;;;;;;;26.98;9.85;;;;;;;;;;4991374;28;20022;-62
2023/01/23 00:45:51;;;;;;;30.48;10.38;;;;;;;;;;4990763;28;20077;-64
2023/01/23 00:48:17;;;;;;;37.93;10.97;;;;;;;;;;4987181;28;20066;-65
2023/01/23 00:50:42;;;;;;;32.53;10.73;;;;;;;;;;4988734;28;20030;-64
2023/01/23 00:53:07;;;;;;;32.93;11.07;;;;;;;;;;4991015;28;20468;-62
2023/01/23 00:55:32;;;;;;;22.87;9.03;;;;;;;;;;4990277;28;20018;-64
2023/01/23 00:57:58;;;;;;;29.20;10.40;;;;;;;;;;4989157;28;20560;-64
2023/01/23 01:00:23;;;;;;;32.72;10.13;;;;;;;;;;4979865;28;20372;-64
2023/01/23 01:02:48;;;;;;;37.33;11.18;;;;;;;;;;4987439;28;20033;-64
2023/01/23 01:05:14;;;;;;;25.27;9.02;;;;;;;;;;4987468;28;20033;-64
2023/01/23 01:07:39;;;;;;;34.58;10.60;;;;;;;;;;4983482;28;20057;-63
2023/01/23 01:10:05;;;;;;;28.27;10.73;;;;;;;;;;4992372;28;20116;-64
2023/01/23 01:12:30;;;;;;;34.60;11.07;;;;;;;;;;4994079;28;20022;-65
2023/01/23 01:14:55;;;;;;;28.50;10.38;;;;;;;;;;4990222;28;20320;-64
2023/01/23 01:17:20;;;;;;;31.85;10.60;;;;;;;;;;4988930;28;20432;-64
2023/01/23 01:19:45;;;;;;;33.60;10.93;;;;;;;;;;4989947;28;20034;-63
2023/01/23 01:22:10;;;;;;;28.15;9.63;;;;;;;;;;4991471;28;20022;-66
2023/01/23 01:24:36;;;;;;;35.77;10.80;;;;;;;;;;4997127;28;20053;-66
2023/01/23 01:27:01;;;;;;;27.83;9.70;;;;;;;;;;4990073;28;20054;-64
2023/01/23 01:29:26;;;;;;;25.80;9.53;;;;;;;;;;4990721;28;20030;-65
2023/01/23 01:31:51;;;;;;;27.05;9.45;;;;;;;;;;4990040;28;20027;-65
2023/01/23 01:34:16;;;;;;;28.27;9.40;;;;;;;;;;4990522;28;20451;-64
2023/01/23 01:36:41;;;;;;;30.00;10.20;;;;;;;;;;4990221;28;20054;-64
2023/01/23 01:39:06;;;;;;;24.60;8.95;;;;;;;;;;4988487;28;20038;-64
2023/01/23 01:41:32;;;;;;;27.67;9.38;;;;;;;;;;4991230;28;20032;-63
2023/01/23 01:43:58;;;;;;;22.37;8.83;;;;;;;;;;4994241;28;20049;-67
2023/01/23 01:46:25;;;;;;;31.67;10.50;;;;;;;;;;4998568;28;20022;-64
2023/01/23 01:48:56;;;;;;;27.70;9.77;;;;;;;;;;4988708;28;20499;-65
2023/01/23 01:51:24;;;;;;;29.98;10.13;;;;;;;;;;4983818;28;20096;-64
2023/01/23 01:53:55;;;;;;;30.85;9.90;;;;;;;;;;4991075;28;20377;-65
2023/01/23 01:56:20;;;;;;;31.95;9.82;;;;;;;;;;4991381;28;20037;-64
2023/01/23 01:58:47;;;;;;;27.37;9.73;;;;;;;;;;4990394;28;20030;-64
2023/01/23 02:01:12;;;;;;;35.72;9.80;;;;;;;;;;4987627;28;20491;-65
2023/01/23 02:03:38;;;;;;;29.65;10.25;;;;;;;;;;4989620;28;20507;-64
2023/01/23 02:06:03;;;;;;;39.08;10.50;;;;;;;;;;4990547;28;20072;-65
2023/01/23 02:08:35;;;;;;;27.10;9.53;;;;;;;;;;4992054;28;20030;-65
2023/01/23 02:11:04;;;;;;;27.27;9.30;;;;;;;;;;4984632;28;20027;-64
2023/01/23 02:13:37;;;;;;;26.35;10.18;;;;;;;;;;4990411;28;20026;-64
2023/01/23 02:16:13;;;;;;;32.15;10.90;;;;;;;;;;4990753;28;20029;-65
2023/01/23 02:18:43;;;;;;;32.95;10.70;;;;;;;;;;4981859;28;20027;-64
2023/01/23 02:21:08;;;;;;;33.63;10.32;;;;;;;;;;4990448;28;20475;-64
2023/01/23 02:23:42;;;;;;;30.48;10.35;;;;;;;;;;4993148;28;20037;-65
2023/01/23 02:26:18;;;;;;;29.92;10.20;;;;;;;;;;4991783;28;20034;-64
2023/01/23 02:28:45;;;;;;;32.15;9.80;;;;;;;;;;4992343;28;20018;-64
2023/01/23 02:31:10;;;;;;;30.85;10.55;;;;;;;;;;4989589;28;20026;-65
2023/01/23 02:33:35;;;;;;;26.95;9.75;;;;;;;;;;4990926;28;20014;-64
2023/01/23 02:36:02;;;;;;;25.00;9.45;;;;;;;;;;4991299;28;20117;-64
2023/01/23 02:38:43;;;;;;;31.33;10.68;;;;;;;;;;4990210;28;20431;-64
2023/01/23 02:41:09;;;;;;;28.67;9.73;;;;;;;;;;4987440;28;20531;-64
2023/01/23 02:43:36;;;;;;;29.88;10.75;;;;;;;;;;4989181;28;20030;-65
2023/01/23 02:46:02;;;;;;;27.35;9.55;;;;;;;;;;4991363;28;20026;-65
2023/01/23 02:48:27;;;;;;;23.67;9.05;;;;;;;;;;4989005;28;20427;-65
2023/01/23 02:50:52;;;;;;;23.53;9.30;;;;;;;;;;4992416;28;20034;-63
2023/01/23 02:53:17;;;;;;;29.13;10.23;;;;;;;;;;4991457;28;20053;-64
2023/01/23 02:55:43;;;;;;;27.70;9.50;;;;;;;;;;4991422;28;20079;-65
2023/01/23 03:00:52;;;;;;;32.42;10.93;;;;;;;;;;4981353;28;20045;-65
2023/01/23 03:03:17;;;;;;;32.05;9.77;;;;;;;;;;4988205;28;20092;-65
2023/01/23 03:05:43;;;;;;;27.58;9.98;;;;;;;;;;4998069;28;20101;-65
2023/01/23 03:08:08;;;;;;;31.50;10.73;;;;;;;;;;4993557;28;20033;-62
2023/01/23 03:10:33;;;;;;;29.98;10.30;;;;;;;;;;4993093;28;20833;-64
2023/01/23 03:13:02;;;;;;;32.13;10.23;;;;;;;;;;4993504;28;20436;-63
2023/01/23 03:15:27;;;;;;;26.35;10.13;;;;;;;;;;4988710;28;20010;-64
2023/01/23 03:17:53;;;;;;;31.00;9.83;;;;;;;;;;4992031;28;20018;-64
2023/01/23 03:20:18;;;;;;;29.08;10.27;;;;;;;;;;4991540;28;20140;-65
2023/01/23 03:22:44;;;;;;;30.27;10.00;;;;;;;;;;4992162;28;20026;-65
2023/01/23 03:25:09;;;;;;;32.77;10.63;;;;;;;;;;4990061;28;20476;-66
2023/01/23 03:27:36;;;;;;;25.20;9.15;;;;;;;;;;4990344;28;20058;-65
2023/01/23 03:30:14;;;;;;;25.30;8.77;;;;;;;;;;4988147;28;20490;-64
2023/01/23 03:32:40;;;;;;;28.42;9.57;;;;;;;;;;4985217;28;20479;-65
2023/01/23 03:35:08;;;;;;;25.65;9.05;;;;;;;;;;4989460;28;20040;-65
2023/01/23 03:37:34;;;;;;;32.35;10.20;;;;;;;;;;4986355;28;20018;-66
2023/01/23 03:42:43;;;;;;;33.22;10.27;;;;;;;;;;4992870;28;20029;-65
2023/01/23 03:45:08;;;;;;;31.85;10.60;;;;;;;;;;4988962;28;20026;-63
2023/01/23 03:47:34;;;;;;;26.15;9.68;;;;;;;;;;4988755;28;20026;-65
2023/01/23 03:49:59;;;;;;;34.95;10.00;;;;;;;;;;4988266;28;20030;-64
2023/01/23 03:52:24;;;;;;;31.40;9.90;;;;;;;;;;4989664;28;20027;-66
2023/01/23 03:54:49;;;;;;;27.70;9.77;;;;;;;;;;4993341;28;20034;-64
2023/01/23 03:57:14;;;;;;;22.88;8.73;;;;;;;;;;4992355;28;20361;-63
2023/01/23 03:59:39;;;;;;;30.87;10.03;;;;;;;;;;4989405;28;20042;-64
2023/01/23 04:02:05;;;;;;;28.75;9.95;;;;;;;;;;4992184;28;20392;-64
2023/01/23 04:04:31;;;;;;;30.80;10.63;;;;;;;;;;4990810;28;20479;-64
2023/01/23 04:06:56;;;;;;;25.80;9.70;;;;;;;;;;4989342;28;20030;-63
2023/01/23 04:09:26;;;;;;;27.40;9.50;;;;;;;;;;4983499;28;20679;-63
2023/01/23 04:11:51;;;;;;;30.08;10.10;;;;;;;;;;4978836;28;20018;-63
2023/01/23 04:14:16;;;;;;;23.73;9.37;;;;;;;;;;4990067;28;20105;-63
2023/01/23 04:16:41;;;;;;;27.97;10.40;;;;;;;;;;4991521;28;20050;-66
2023/01/23 04:19:06;;;;;;;24.77;9.88;;;;;;;;;;4987080;28;20117;-64
2023/01/23 04:21:32;;;;;;;30.17;10.18;;;;;;;;;;4987712;28;20105;-65
2023/01/23 04:23:57;;;;;;;22.33;8.70;;;;;;;;;;4986195;28;20022;-64
2023/01/23 04:26:22;;;;;;;26.05;10.07;;;;;;;;;;4983226;28;20022;-65
2023/01/23 04:28:47;;;;;;;36.13;10.57;;;;;;;;;;4984932;28;20065;-65
2023/01/23 04:31:12;;;;;;;32.83;9.98;;;;;;;;;;4988905;28;20066;-65
2023/01/23 04:33:37;;;;;;;33.10;11.40;;;;;;;;;;4988696;28;20015;-66
2023/01/23 04:36:04;;;;;;;33.53;10.90;;;;;;;;;;4980622;28;20022;-65
2023/01/23 04:38:29;;;;;;;28.90;10.27;;;;;;;;;;4988641;28;20073;-66
2023/01/23 04:40:55;;;;;;;35.25;10.85;;;;;;;;;;4988008;28;20022;-64
2023/01/23 04:43:20;;;;;;;30.88;10.13;;;;;;;;;;4986027;28;20058;-64
2023/01/23 04:45:45;;;;;;;28.00;10.27;;;;;;;;;;4989499;28;20476;-65
2023/01/23 04:48:11;;;;;;;33.58;10.63;;;;;;;;;;4989659;28;20027;-66
2023/01/23 04:50:37;;;;;;;25.63;9.43;;;;;;;;;;4993335;28;20030;-63
2023/01/23 04:53:02;;;;;;;32.92;10.55;;;;;;;;;;4993546;28;20395;-65
2023/01/23 04:55:27;;;;;;;26.70;8.90;;;;;;;;;;4989169;28;20152;-65
2023/01/23 04:57:53;;;;;;;23.80;8.80;;;;;;;;;;4990405;28;20035;-65
2023/01/23 05:00:19;;;;;;;27.45;10.27;;;;;;;;;;4993759;28;20491;-65
2023/01/23 05:02:45;;;;;;;28.40;9.77;;;;;;;;;;4994052;28;20086;-65
2023/01/23 05:05:11;;;;;;;31.80;10.65;;;;;;;;;;4990446;28;20054;-64
2023/01/23 05:07:36;;;;;;;25.73;9.98;;;;;;;;;;4990831;28;20131;-65
2023/01/23 05:10:01;;;;;;;27.47;10.37;;;;;;;;;;4990505;28;20018;-64
2023/01/23 05:12:27;;;;;;;28.33;10.40;;;;;;;;;;4991709;28;20469;-64
2023/01/23 05:14:52;;;;;;;30.02;10.43;;;;;;;;;;4992852;28;20084;-66
2023/01/23 05:17:17;;;;;;;30.03;10.20;;;;;;;;;;4991506;28;20088;-66
2023/01/23 05:19:42;;;;;;;35.83;10.32;;;;;;;;;;4987242;28;20480;-65
2023/01/23 05:22:07;;;;;;;30.95;10.20;;;;;;;;;;4990495;28;20526;-66
2023/01/23 05:24:32;;;;;;;36.78;11.68;;;;;;;;;;4990716;28;20069;-65
2023/01/23 05:26:57;;;;;;;25.77;9.43;;;;;;;;;;4993295;28;20037;-65
2023/01/23 05:29:23;;;;;;;26.93;9.57;;;;;;;;;;4986270;28;20115;-63
2023/01/23 05:31:48;;;;;;;31.23;10.68;;;;;;;;;;4990919;28;20033;-65
2023/01/23 05:34:13;;;;;;;33.63;10.53;;;;;;;;;;4991790;28;20325;-65
2023/01/23 05:36:38;;;;;;;32.28;10.82;;;;;;;;;;4997488;28;20022;-64
2023/01/23 05:39:03;;;;;;;31.40;10.90;;;;;;;;;;5000878;28;20042;-64
2023/01/23 05:41:28;;;;;;;37.97;11.55;;;;;;;;;;5002096;28;20449;-65
2023/01/23 05:43:54;;;;;;;33.13;10.52;;;;;;;;;;4990037;28;20093;-65
2023/01/23 05:46:19;;;;;;;36.13;11.90;;;;;;;;;;4990247;28;20396;-64
2023/01/23 05:48:47;;;;;;;31.20;10.68;;;;;;;;;;4989805;28;20033;-65
2023/01/23 05:51:12;;;;;;;37.88;11.77;;;;;;;;;;4991395;28;20502;-66
2023/01/23 05:53:37;;;;;;;32.30;10.88;;;;;;;;;;4987698;28;20022;-64
2023/01/23 05:56:08;;;;;;;37.17;10.77;;;;;;;;;;4991577;28;21914;-64
2023/01/23 05:58:33;;;;;;;35.97;10.77;;;;;;;;;;4988484;28;20435;-65
2023/01/23 06:01:00;;;;;;;30.47;10.93;;;;;;;;;;4986856;28;20041;-65
2023/01/23 06:03:25;;;;;;;32.38;10.00;;;;;;;;;;4987559;28;20113;-64
2023/01/23 06:05:51;;;;;;;31.52;11.43;;;;;;;;;;4987308;28;20515;-63
2023/01/23 06:08:16;;;;;;;30.13;10.07;;;;;;;;;;4988381;28;20045;-65
2023/01/23 06:10:41;;;;;;;30.95;10.35;;;;;;;;;;4988122;28;20030;-64
2023/01/23 06:13:06;;;;;;;29.55;9.65;;;;;;;;;;4989209;28;20026;-66
2023/01/23 06:15:31;;;;;;;37.77;11.87;;;;;;;;;;4988789;28;20129;-67
2023/01/23 06:17:56;;;;;;;32.92;11.05;;;;;;;;;;4988186;28;20039;-65
2023/01/23 06:20:21;;;;;;;31.80;10.43;;;;;;;;;;4989755;28;20030;-65
2023/01/23 06:22:47;;;;;;;38.72;11.82;;;;;;;;;;4992050;28;20022;-65
2023/01/23 06:25:12;;;;;;;33.53;10.95;;;;;;;;;;4991995;28;20022;-64
2023/01/23 06:27:37;;;;;;;31.47;11.40;;;;;;;;;;4993405;28;20035;-65
2023/01/23 06:30:02;;;;;;;27.20;9.70;;;;;;;;;;4991216;28;20018;-65
2023/01/23 06:32:28;;;;;;;32.88;11.10;;;;;;;;;;4991329;28;20469;-65
2023/01/23 06:34:53;;;;;;;34.08;11.38;;;;;;;;;;4988881;28;20081;-65
2023/01/23 06:37:18;;;;;;;34.70;11.80;;;;;;;;;;4992431;28;20225;-63
2023/01/23 06:39:43;;;;;;;32.92;11.45;;;;;;;;;;4991044;28;20034;-64
2023/01/23 06:42:09;;;;;;;39.10;12.23;;;;;;;;;;4987077;28;20018;-64
2023/01/23 06:44:34;;;;;;;39.03;12.35;;;;;;;;;;4991315;28;20037;-66
2023/01/23 06:46:59;;;;;;;34.38;11.82;;;;;;;;;;4993155;28;20038;-65
2023/01/23 06:49:25;;;;;;;33.45;12.38;;;;;;;;;;4995134;28;20025;-65
2023/01/23 06:51:50;;;;;;;30.50;11.37;;;;;;;;;;4992427;28;20018;-63
2023/01/23 06:54:15;;;;;;;37.20;11.95;;;;;;;;;;4993531;28;20038;-64
2023/01/23 06:56:40;;;;;;;34.67;11.37;;;;;;;;;;4988717;28;20464;-64
2023/01/23 06:59:05;;;;;;;28.90;11.07;;;;;;;;;;4992247;28;20041;-64
2023/01/23 07:01:30;;;;;;;29.97;10.37;;;;;;;;;;4993833;28;20498;-66
2023/01/23 07:03:55;;;;;;;34.37;10.83;;;;;;;;;;4995415;28;20037;-64
2023/01/23 07:06:21;;;;;;;36.85;11.50;;;;;;;;;;5004453;28;20034;-64
2023/01/23 07:08:46;;;;;;;35.27;11.40;;;;;;;;;;4994097;28;20072;-62
2023/01/23 07:11:11;;;;;;;31.33;11.00;;;;;;;;;;4991405;28;20026;-65
2023/01/23 07:13:36;;;;;;;31.90;11.55;;;;;;;;;;4991451;28;20384;-65
2023/01/23 07:16:02;;;;;;;28.70;10.63;;;;;;;;;;4990360;28;20484;-63
2023/01/23 07:18:29;;;;;;;34.42;11.73;;;;;;;;;;4987965;28;20042;-66
2023/01/23 07:20:54;;;;;;;30.58;11.50;;;;;;;;;;4989435;28;20449;-62
2023/01/23 07:23:19;;;;;;;33.23;11.63;;;;;;;;;;4989241;28;20129;-64
2023/01/23 07:25:45;;;;;;;37.80;12.25;;;;;;;;;;4992054;28;20022;-65
2023/01/23 07:28:10;;;;;;;36.53;12.68;;;;;;;;;;4993737;28;20141;-64
2023/01/23 07:30:35;;;;;;;37.07;12.57;;;;;;;;;;4997026;28;20022;-64
2023/01/23 07:33:01;;;;;;;38.35;13.13;;;;;;;;;;4995348;28;20026;-64
2023/01/23 07:35:26;;;;;;;29.20;10.95;;;;;;;;;;5004558;28;20030;-64
2023/01/23 07:37:51;;;;;;;33.37;12.07;;;;;;;;;;4991672;28;20480;-65
2023/01/23 07:40:16;;;;;;;31.35;11.98;;;;;;;;;;4991273;28;20496;-63
2023/01/23 07:42:42;;;;;;;38.37;12.93;;;;;;;;;;4991578;28;20026;-62
2023/01/23 07:45:08;;;;;;;34.88;10.82;;;;;;;;;;4990787;28;20030;-65
2023/01/23 07:47:33;;;;;;;38.33;11.93;;;;;;;;;;4991256;28;20108;-65
2023/01/23 07:49:58;;;;;;;39.60;12.75;;;;;;;;;;4989763;28;20061;-64
2023/01/23 07:52:24;;;;;;;34.37;11.70;;;;;;;;;;4988706;28;20029;-65
2023/01/23 07:54:49;;;;;;;42.22;13.70;;;;;;;;;;4989943;28;20109;-63
2023/01/23 07:57:14;;;;;;;37.17;11.85;;;;;;;;;;4989238;28;20400;-64
2023/01/23 07:59:39;;;;;;;33.40;12.65;;;;;;;;;;4986526;28;20038;-62
2023/01/23 08:02:04;;;;;;;38.93;12.20;;;;;;;;;;4989070;28;20058;-64
2023/01/23 08:04:29;;;;;;;34.77;12.13;;;;;;;;;;4989713;28;20026;-64
2023/01/23 08:06:54;;;;;;;36.67;12.15;;;;;;;;;;4989840;28;20431;-65
2023/01/23 08:09:20;;;;;;;35.90;12.40;;;;;;;;;;4990583;28;20101;-65
2023/01/23 08:11:45;;;;;;;35.37;12.67;;;;;;;;;;4984768;28;20110;-65
2023/01/23 08:14:10;;;;;;;42.13;13.02;;;;;;;;;;4972611;28;20022;-64
2023/01/23 08:16:35;;;;;;;32.55;11.48;;;;;;;;;;4990129;28;20056;-64
2023/01/23 08:19:00;;;;;;;41.67;13.02;;;;;;;;;;4991337;28;20050;-65
2023/01/23 08:21:25;;;;;;;35.90;11.93;;;;;;;;;;4991957;28;20015;-65
2023/01/23 08:23:50;;;;;;;32.05;11.25;;;;;;;;;;4995114;28;20034;-65
2023/01/23 08:26:16;;;;;;;32.83;11.70;;;;;;;;;;4993346;28;20026;-65
2023/01/23 08:28:42;;;;;;;32.72;12.52;;;;;;;;;;4995002;28;20053;-64
2023/01/23 08:31:08;;;;;;;37.45;12.57;;;;;;;;;;4993439;28;20014;-62
2023/01/23 08:33:34;;;;;;;34.05;11.93;;;;;;;;;;4997585;28;20022;-64
2023/01/23 08:35:59;;;;;;;29.08;11.45;;;;;;;;;;4996475;28;20033;-64
2023/01/23 08:38:24;;;;;;;33.20;12.37;;;;;;;;;;4996801;28;20454;-64
2023/01/23 08:40:50;;;;;;;30.45;11.48;;;;;;;;;;4994821;28;20018;-64
2023/01/23 08:43:16;;;;;;;28.35;10.40;;;;;;;;;;4997190;28;20060;-62
2023/01/23 08:45:50;;;;;;;27.15;10.63;;;;;;;;;;4997143;28;20010;-63
2023/01/23 08:48:15;;;;;;;37.50;12.05;;;;;;;;;;4997864;28;20022;-63
2023/01/23 08:50:40;;;;;;;40.63;12.88;;;;;;;;;;4995116;28;20408;-62
2023/01/23 08:53:06;;;;;;;36.87;12.27;;;;;;;;;;4997754;28;20032;-63
2023/01/23 08:55:31;;;;;;;29.47;11.50;;;;;;;;;;5009873;28;20096;-65
2023/01/23 08:57:57;;;;;;;34.55;12.57;;;;;;;;;;4999447;28;20593;-63
2023/01/23 09:00:22;;;;;;;31.75;11.75;;;;;;;;;;4998560;28;20030;-64
2023/01/23 09:02:47;;;;;;;31.03;11.77;;;;;;;;;;4993011;28;20034;-64
2023/01/23 09:05:12;;;;;;;33.50;11.65;;;;;;;;;;4994295;28;20027;-63
2023/01/23 09:07:38;;;;;;;29.87;12.13;;;;;;;;;;4993109;28;20514;-65
2023/01/23 09:10:04;;;;;;;29.73;11.88;;;;;;;;;;4992879;28;20121;-64
2023/01/23 09:12:30;;;;;;;28.65;11.20;;;;;;;;;;4993126;28;20014;-63
2023/01/23 09:14:55;;;;;;;33.22;12.98;;;;;;;;;;4994983;28;20050;-64
2023/01/23 09:17:20;;;;;;;33.05;11.93;;;;;;;;;;4994666;28;20065;-64
2023/01/23 09:19:45;;;;;;;32.53;12.17;;;;;;;;;;4992332;28;20487;-63
2023/01/23 09:22:11;;;;;;;31.35;11.75;;;;;;;;;;4995537;28;20030;-63
2023/01/23 09:24:36;;;;;;;31.88;12.07;;;;;;;;;;4997607;28;20046;-63
2023/01/23 09:27:01;;;;;;;32.07;12.00;;;;;;;;;;4997746;28;20033;-64
2023/01/23 09:29:26;;;;;;;30.70;11.47;;;;;;;;;;4994735;28;20034;-65
2023/01/23 09:31:51;;;;;;;35.73;12.13;;;;;;;;;;4993201;28;20734;-65
2023/01/23 09:34:16;;;;;;;33.30;12.00;;;;;;;;;;4992227;28;20137;-63
2023/01/23 09:36:42;;;;;;;29.83;11.85;;;;;;;;;;4976752;28;20068;-63
2023/01/23 09:39:07;;;;;;;29.13;11.88;;;;;;;;;;4992269;28;20403;-63
2023/01/23 09:41:32;;;;;;;30.53;11.37;;;;;;;;;;4992348;28;20023;-65
2023/01/23 09:44:00;;;;;;;27.90;11.33;;;;;;;;;;4993059;28;20076;-64
2023/01/23 09:46:35;;;;;;;32.10;12.05;;;;;;;;;;4993866;28;20027;-65
2023/01/23 09:49:13;;;;;;;27.75;11.27;;;;;;;;;;4992644;28;20037;-66
2023/01/23 09:51:49;;;;;;;28.42;10.52;;;;;;;;;;4988732;28;20018;-65
2023/01/23 09:54:33;;;;;;;24.90;10.05;;;;;;;;;;4992445;28;20025;-65
2023/01/23 09:56:59;;;;;;;30.23;11.20;;;;;;;;;;4992707;28;20014;-64
2023/01/23 09:59:30;;;;;;;29.80;11.52;;;;;;;;;;4991773;28;20022;-64
2023/01/23 10:01:56;;;;;;;32.50;12.40;;;;;;;;;;4992393;28;20551;-64
2023/01/23 10:04:22;;;;;;;30.88;12.00;;;;;;;;;;4993644;28;20057;-64
2023/01/23 10:06:50;;;;;;;32.58;12.18;;;;;;;;;;4993916;28;20076;-66
2023/01/23 10:09:23;;;;;;;34.80;12.88;;;;;;;;;;4993193;28;20022;-66
2023/01/23 10:11:56;;;;;;;28.92;11.90;;;;;;;;;;4992821;28;20018;-64
2023/01/23 10:14:40;;;;;;;28.88;11.73;;;;;;;;;;4994865;28;20026;-64
2023/01/23 10:17:22;;;;;;;27.52;10.63;;;;;;;;;;4995605;28;20476;-65
2023/01/23 10:19:47;;;;;;;30.40;12.23;;;;;;;;;;4992629;28;20065;-66
2023/01/23 10:22:28;;;;;;;28.70;12.02;;;;;;;;;;4993228;28;20052;-64
2023/01/23 10:24:54;;;;;;;30.98;11.85;;;;;;;;;;4989342;28;20014;-64
2023/01/23 10:27:21;;;;;;;29.25;12.25;;;;;;;;;;4994919;28;20086;-66
2023/01/23 10:29:54;;;;;;;30.65;11.68;;;;;;;;;;5094097;23;20046;-64
2023/01/23 10:32:24;;;;;;;32.58;12.50;;;;;;;;;;5011229;28;20037;-66
2023/01/23 10:34:55;;;;;;;30.83;11.88;;;;;;;;;;5011414;28;20025;-63
2023/01/23 10:37:29;;;;;;;26.95;10.30;;;;;;;;;;5011550;28;20018;-63
2023/01/23 10:39:59;;;;;;;31.45;11.40;;;;;;;;;;5010238;28;20227;-66
2023/01/23 10:42:25;;;;;;;33.63;12.55;;;;;;;;;;5009248;28;20014;-64
2023/01/23 10:44:50;;;;;;;32.88;12.52;;;;;;;;;;5011552;28;20026;-63
2023/01/23 10:47:29;;;;;;;36.07;13.00;;;;;;;;;;5012049;28;20140;-62
2023/01/23 10:49:55;;;;;;;34.83;12.98;;;;;;;;;;5010343;28;20545;-61
2023/01/23 10:52:35;;;;;;;30.23;11.77;;;;;;;;;;5010600;28;20030;-61
2023/01/23 10:55:00;;;;;;;28.73;11.88;;;;;;;;;;5010554;28;20109;-62
2023/01/23 10:57:27;;;;;;;27.60;10.87;;;;;;;;;;5011465;28;20517;-61
2023/01/23 10:59:52;;;;;;;33.33;13.30;;;;;;;;;;5008034;28;20380;-64
2023/01/23 11:02:19;;;;;;;35.67;13.30;;;;;;;;;;5010226;28;20434;-61
2023/01/23 11:04:45;;;;;;;31.90;12.55;;;;;;;;;;5009802;28;20022;-62
2023/01/23 11:07:13;;;;;;;32.22;12.95;;;;;;;;;;5010523;28;20152;-65
2023/01/23 11:09:50;;;;;;;28.70;10.98;;;;;;;;;;5010799;28;20021;-62
2023/01/23 11:12:17;;;;;;;32.92;13.57;;;;;;;;;;5008607;28;20029;-65
2023/01/23 11:14:43;;;;;;;30.20;10.68;;;;;;;;;;5010350;28;20088;-61
2023/01/23 11:17:14;;;;;;;31.23;12.13;;;;;;;;;;5010896;28;20033;-62
2023/01/23 11:19:40;;;;;;;26.75;10.18;;;;;;;;;;5007698;28;20117;-62
2023/01/23 11:22:21;;;;;;;27.98;10.95;;;;;;;;;;5010965;28;20502;-61
2023/01/23 11:24:46;;;;;;;25.83;10.27;;;;;;;;;;5009957;28;20485;-64
2023/01/23 11:27:11;;;;;;;30.95;11.40;;;;;;;;;;5010759;28;20026;-61
2023/01/23 11:29:55;;;;;;;25.42;10.48;;;;;;;;;;5009172;28;20033;-61
2023/01/23 11:32:21;;;;;;;27.73;11.02;;;;;;;;;;5007830;28;20133;-64
2023/01/23 11:34:48;;;;;;;23.05;9.18;;;;;;;;;;5010623;28;20104;-62
2023/01/23 11:37:16;;;;;;;25.73;10.02;;;;;;;;;;5010705;28;20028;-63
2023/01/23 11:40:04;;;;;;;20.88;8.20;;;;;;;;;;5009303;28;20042;-63
2023/01/23 11:42:29;;;;;;;24.17;9.95;;;;;;;;;;5002439;28;20022;-63
2023/01/23 11:44:57;;;;;;;25.92;10.00;;;;;;;;;;5009716;28;20041;-64
2023/01/23 11:47:41;;;;;;;27.42;10.55;;;;;;;;;;5009029;28;20066;-64
2023/01/23 11:50:24;;;;;;;24.63;9.45;;;;;;;;;;5009130;28;20105;-63
2023/01/23 11:52:59;;;;;;;28.65;10.23;;;;;;;;;;5010182;28;20022;-65
2023/01/23 11:55:34;;;;;;;25.85;9.70;;;;;;;;;;5009829;28;20118;-62
2023/01/23 11:58:02;;;;;;;23.75;9.27;;;;;;;;;;5009558;28;20038;-65
2023/01/23 12:00:54;;;;;;;25.73;9.95;;;;;;;;;;4999520;28;20042;-62
2023/01/23 12:03:41;;;;;;;26.30;10.18;;;;;;;;;;5004247;28;20223;-66
2023/01/23 12:06:23;;;;;;;27.42;10.63;;;;;;;;;;5009459;28;20472;-63
2023/01/23 12:08:52;;;;;;;29.45;10.88;;;;;;;;;;5008362;28;20368;-63
2023/01/23 12:11:19;;;;;;;23.95;9.10;;;;;;;;;;5009685;28;20018;-63
2023/01/23 12:13:57;;;;;;;27.70;10.15;;;;;;;;;;5008638;28;20650;-63
2023/01/23 12:16:30;;;;;;;24.58;9.68;;;;;;;;;;5008168;28;20037;-63
2023/01/23 12:19:24;;;;;;;28.75;10.85;;;;;;;;;;5009904;28;20034;-65
2023/01/23 12:22:04;;;;;;;30.83;12.55;;;;;;;;;;4998852;28;20034;-64
2023/01/23 12:24:52;;;;;;;33.13;12.27;;;;;;;;;;5000923;28;20048;-62
2023/01/23 12:27:21;;;;;;;26.77;10.48;;;;;;;;;;5010167;28;20022;-62
2023/01/23 12:30:05;;;;;;;26.17;9.25;;;;;;;;;;5008050;28;20108;-62
2023/01/23 12:32:42;;;;;;;25.00;9.13;;;;;;;;;;5007765;28;20045;-64
2023/01/23 12:35:16;;;;;;;32.65;11.20;;;;;;;;;;5006601;28;20105;-64
2023/01/23 12:37:48;;;;;;;22.98;9.02;;;;;;;;;;5010263;28;20026;-62
2023/01/23 12:40:21;;;;;;;24.67;9.55;;;;;;;;;;5009216;28;20535;-64
2023/01/23 12:42:55;;;;;;;25.10;9.57;;;;;;;;;;5010897;28;20026;-64
2023/01/23 12:45:24;;;;;;;25.33;9.68;;;;;;;;;;5009218;28;20034;-64
2023/01/23 12:47:56;;;;;;;30.60;11.95;;;;;;;;;;5008867;28;20022;-62
2023/01/23 12:50:39;;;;;;;30.20;11.85;;;;;;;;;;5008483;28;20100;-62
2023/01/23 12:53:08;;;;;;;29.05;10.55;;;;;;;;;;5009961;28;20041;-62
2023/01/23 12:55:49;;;;;;;25.00;9.77;;;;;;;;;;5008819;28;20849;-62
2023/01/23 12:58:16;;;;;;;26.58;10.65;;;;;;;;;;5010183;28;20034;-63
2023/01/23 13:00:50;;;;;;;29.80;10.80;;;;;;;;;;5007977;28;20045;-62
2023/01/23 13:03:30;;;;;;;28.17;10.85;;;;;;;;;;5008229;28;20104;-61
2023/01/23 13:05:58;;;;;;;28.98;11.45;;;;;;;;;;5010859;28;20018;-61
2023/01/23 13:08:30;;;;;;;29.75;10.65;;;;;;;;;;5013134;28;20021;-61
2023/01/23 13:13:46;;;;;;;31.95;12.73;;;;;;;;;;4995321;28;20029;-61
2023/01/23 13:16:15;;;;;;;32.07;12.10;;;;;;;;;;5010940;28;20018;-61
2023/01/23 13:27:43;;;;;;;32.38;12.27;;;;;;;;;;5011520;28;20037;-62
2023/01/23 13:30:20;;;;;;;35.67;13.00;;;;;;;;;;5021629;28;20061;-61
2023/01/23 13:32:46;;;;;;;42.13;15.10;;;;;;;;;;5019965;28;20406;-61
2023/01/23 13:35:46;;;;;;;39.83;13.83;;;;;;;;;;5020066;28;20014;-61
2023/01/23 13:38:20;;;;;;;38.13;12.43;;;;;;;;;;5022102;28;20048;-61
2023/01/23 13:41:03;;;;;;;36.20;12.77;;;;;;;;;;5019674;28;20028;-60
2023/01/23 13:43:42;;;;;;;35.10;12.63;;;;;;;;;;5012964;28;20106;-61
2023/01/23 13:46:21;;;;;;;34.53;12.80;;;;;;;;;;5018339;28;20026;-61
2023/01/23 13:51:39;;;;;;;38.70;13.65;;;;;;;;;;5019928;28;20037;-61
2023/01/23 13:56:54;;;;;;;38.97;13.63;;;;;;;;;;5024315;28;20135;-63
2023/01/23 13:59:21;;;;;;;40.87;14.47;;;;;;;;;;5024883;28;20042;-63
2023/01/23 14:07:52;;;;;;;40.97;13.65;;;;;;;;;;5016690;28;20060;-61
2023/01/23 14:10:22;;;;;;;42.75;13.70;;;;;;;;;;5022714;28;20034;-62
2023/01/23 14:12:47;;;;;;;33.78;12.30;;;;;;;;;;5027401;28;20108;-64
2023/01/23 14:18:00;;;;;;;37.58;13.02;;;;;;;;;;5016097;28;20017;-61
2023/01/23 14:20:25;;;;;;;37.47;13.15;;;;;;;;;;5021310;28;20029;-61
2023/01/23 14:22:55;;;;;;;46.97;15.18;;;;;;;;;;5025233;28;20045;-61
2023/01/23 14:25:20;;;;;;;44.30;13.93;;;;;;;;;;5012970;28;20394;-61
2023/01/23 14:27:45;;;;;;;44.67;14.30;;;;;;;;;;5016950;28;20017;-62
2023/01/23 14:30:13;;;;;;;49.63;16.17;;;;;;;;;;5012863;28;20486;-62
2023/01/23 14:32:38;;;;;;;43.92;14.32;;;;;;;;;;5023840;28;20037;-61
2023/01/23 14:35:16;;;;;;;46.47;15.38;;;;;;;;;;5011635;28;20024;-61
2023/01/23 14:37:41;;;;;;;43.90;14.57;;;;;;;;;;5011699;28;20041;-61
2023/01/23 14:40:16;;;;;;;40.03;14.57;;;;;;;;;;5011993;28;20517;-61
2023/01/23 14:42:42;;;;;;;41.60;14.57;;;;;;;;;;5011613;28;20363;-61
2023/01/23 14:45:09;;;;;;;46.55;15.30;;;;;;;;;;5011680;28;20109;-62
2023/01/23 14:47:39;;;;;;;46.53;15.77;;;;;;;;;;5011975;28;20052;-61
2023/01/23 14:50:09;;;;;;;45.90;14.70;;;;;;;;;;5010088;28;20361;-61
2023/01/23 14:52:34;;;;;;;39.53;13.65;;;;;;;;;;4999956;28;20018;-60
2023/01/23 14:54:59;;;;;;;43.38;13.93;;;;;;;;;;5005474;28;20045;-60